sensor_id;sensor_type;location;lat;lon;timestamp;temperature;humidity
21830;DHT22;11077;50.264;6.798;2022-07-04T00:00:02;14.10;99.90
21830;DHT22;11077;50.264;6.798;2022-07-04T00:02:30;14.00;99.90
21830;DHT22;11077;50.264;6.798;2022-07-04T00:04:58;14.10;99.90
21830;DHT22;11077;50.264;6.798;2022-07-04T00:07:25;14.00;99.90
21830;DHT22;11077;50.264;6.798;2022-07-04T00:09:54;14.00;99.90
21830;DHT22;11077;50.264;6.798;2022-07-04T00:12:21;13.90;99.90
21830;DHT22;11077;50.264;6.798;2022-07-04T00:14:48;13.80;99.90
21830;DHT22;11077;50.264;6.798;2022-07-04T00:17:15;13.80;99.90
21830;DHT22;11077;50.264;6.798;2022-07-04T00:19:45;13.70;99.90
21830;DHT22;11077;50.264;6.798;2022-07-04T00:22:12;13.60;99.90
21830;DHT22;11077;50.264;6.798;2022-07-04T00:24:39;13.50;99.90
21830;DHT22;11077;50.264;6.798;2022-07-04T00:27:08;13.50;99.90
21830;DHT22;11077;50.264;6.798;2022-07-04T00:29:35;13.40;99.90
21830;DHT22;11077;50.264;6.798;2022-07-04T00:32:03;13.40;99.90
21830;DHT22;11077;50.264;6.798;2022-07-04T00:34:30;13.40;99.90
21830;DHT22;11077;50.264;6.798;2022-07-04T00:36:58;13.30;99.90
21830;DHT22;11077;50.264;6.798;2022-07-04T00:39:25;13.20;99.90
21830;DHT22;11077;50.264;6.798;2022-07-04T00:41:52;13.10;99.90
21830;DHT22;11077;50.264;6.798;2022-07-04T00:44:21;13.00;99.90
21830;DHT22;11077;50.264;6.798;2022-07-04T00:46:48;12.80;99.90
21830;DHT22;11077;50.264;6.798;2022-07-04T00:49:17;12.80;99.90
21830;DHT22;11077;50.264;6.798;2022-07-04T00:51:45;12.60;99.90
21830;DHT22;11077;50.264;6.798;2022-07-04T00:54:14;12.60;99.90
21830;DHT22;11077;50.264;6.798;2022-07-04T00:56:44;12.60;99.90
21830;DHT22;11077;50.264;6.798;2022-07-04T00:59:13;12.60;99.90
21830;DHT22;11077;50.264;6.798;2022-07-04T01:01:41;12.60;99.90
21830;DHT22;11077;50.264;6.798;2022-07-04T01:04:08;12.60;99.90
21830;DHT22;11077;50.264;6.798;2022-07-04T01:06:37;12.60;99.90
21830;DHT22;11077;50.264;6.798;2022-07-04T01:09:05;12.60;99.90
21830;DHT22;11077;50.264;6.798;2022-07-04T01:11:32;12.60;99.90
21830;DHT22;11077;50.264;6.798;2022-07-04T01:13:59;12.50;99.90
21830;DHT22;11077;50.264;6.798;2022-07-04T01:16:27;12.40;99.90
21830;DHT22;11077;50.264;6.798;2022-07-04T01:18:55;12.40;99.90
21830;DHT22;11077;50.264;6.798;2022-07-04T01:21:24;12.30;99.90
21830;DHT22;11077;50.264;6.798;2022-07-04T01:23:51;12.30;99.90
21830;DHT22;11077;50.264;6.798;2022-07-04T01:26:19;12.20;99.90
21830;DHT22;11077;50.264;6.798;2022-07-04T01:28:46;12.20;99.90
21830;DHT22;11077;50.264;6.798;2022-07-04T01:31:14;12.20;99.90
21830;DHT22;11077;50.264;6.798;2022-07-04T01:33:41;12.20;99.90
21830;DHT22;11077;50.264;6.798;2022-07-04T01:36:08;12.20;99.90
21830;DHT22;11077;50.264;6.798;2022-07-04T01:38:37;12.00;99.90
21830;DHT22;11077;50.264;6.798;2022-07-04T01:41:04;12.00;99.90
21830;DHT22;11077;50.264;6.798;2022-07-04T01:43:31;11.90;99.90
21830;DHT22;11077;50.264;6.798;2022-07-04T01:46:01;11.80;99.90
21830;DHT22;11077;50.264;6.798;2022-07-04T01:48:28;11.60;99.90
21830;DHT22;11077;50.264;6.798;2022-07-04T01:50:55;11.60;99.90
21830;DHT22;11077;50.264;6.798;2022-07-04T01:53:22;11.60;99.90
21830;DHT22;11077;50.264;6.798;2022-07-04T01:55:51;11.60;99.90
21830;DHT22;11077;50.264;6.798;2022-07-04T01:58:18;11.50;99.90
21830;DHT22;11077;50.264;6.798;2022-07-04T02:00:46;11.60;99.90
21830;DHT22;11077;50.264;6.798;2022-07-04T02:03:30;11.50;99.90
21830;DHT22;11077;50.264;6.798;2022-07-04T02:05:57;11.50;99.90
21830;DHT22;11077;50.264;6.798;2022-07-04T02:08:25;11.40;99.90
21830;DHT22;11077;50.264;6.798;2022-07-04T02:11:14;11.30;99.90
21830;DHT22;11077;50.264;6.798;2022-07-04T02:13:41;11.30;99.90
21830;DHT22;11077;50.264;6.798;2022-07-04T02:16:07;11.40;99.90
21830;DHT22;11077;50.264;6.798;2022-07-04T02:18:34;11.30;99.90
21830;DHT22;11077;50.264;6.798;2022-07-04T02:21:02;11.30;99.90
21830;DHT22;11077;50.264;6.798;2022-07-04T02:23:29;11.30;99.90
21830;DHT22;11077;50.264;6.798;2022-07-04T02:25:57;11.20;99.90
21830;DHT22;11077;50.264;6.798;2022-07-04T02:28:25;11.20;99.90
21830;DHT22;11077;50.264;6.798;2022-07-04T02:30:53;11.20;99.90
21830;DHT22;11077;50.264;6.798;2022-07-04T02:33:20;11.10;99.90
21830;DHT22;11077;50.264;6.798;2022-07-04T02:35:47;11.00;99.90
21830;DHT22;11077;50.264;6.798;2022-07-04T02:38:14;11.00;99.90
21830;DHT22;11077;50.264;6.798;2022-07-04T02:40:41;10.90;99.90
21830;DHT22;11077;50.264;6.798;2022-07-04T02:43:09;10.90;99.90
21830;DHT22;11077;50.264;6.798;2022-07-04T02:45:37;10.90;99.90
21830;DHT22;11077;50.264;6.798;2022-07-04T02:48:05;10.90;99.90
21830;DHT22;11077;50.264;6.798;2022-07-04T02:50:32;10.90;99.90
21830;DHT22;11077;50.264;6.798;2022-07-04T02:52:59;10.80;99.90
21830;DHT22;11077;50.264;6.798;2022-07-04T02:55:26;10.90;99.90
21830;DHT22;11077;50.264;6.798;2022-07-04T02:57:54;10.90;99.90
21830;DHT22;11077;50.264;6.798;2022-07-04T03:00:21;10.80;99.90
21830;DHT22;11077;50.264;6.798;2022-07-04T03:02:50;10.70;99.90
21830;DHT22;11077;50.264;6.798;2022-07-04T03:05:17;10.60;99.90
21830;DHT22;11077;50.264;6.798;2022-07-04T03:07:44;10.60;99.90
21830;DHT22;11077;50.264;6.798;2022-07-04T03:10:12;10.50;99.90
21830;DHT22;11077;50.264;6.798;2022-07-04T03:12:39;10.50;99.90
21830;DHT22;11077;50.264;6.798;2022-07-04T03:15:07;10.60;99.90
21830;DHT22;11077;50.264;6.798;2022-07-04T03:17:34;10.50;99.90
21830;DHT22;11077;50.264;6.798;2022-07-04T03:20:03;10.60;99.90
21830;DHT22;11077;50.264;6.798;2022-07-04T03:22:31;10.50;99.90
21830;DHT22;11077;50.264;6.798;2022-07-04T03:24:58;10.40;99.90
21830;DHT22;11077;50.264;6.798;2022-07-04T03:27:26;10.40;99.90
21830;DHT22;11077;50.264;6.798;2022-07-04T03:29:53;10.40;99.90
21830;DHT22;11077;50.264;6.798;2022-07-04T03:32:21;10.30;99.90
21830;DHT22;11077;50.264;6.798;2022-07-04T03:34:48;10.30;99.90
21830;DHT22;11077;50.264;6.798;2022-07-04T03:37:17;10.10;99.90
21830;DHT22;11077;50.264;6.798;2022-07-04T03:39:44;10.00;99.90
21830;DHT22;11077;50.264;6.798;2022-07-04T03:42:11;10.00;99.90
21830;DHT22;11077;50.264;6.798;2022-07-04T03:44:38;10.00;99.90
21830;DHT22;11077;50.264;6.798;2022-07-04T03:47:06;9.90;99.90
21830;DHT22;11077;50.264;6.798;2022-07-04T03:49:33;9.90;99.90
21830;DHT22;11077;50.264;6.798;2022-07-04T03:52:00;9.90;99.90
21830;DHT22;11077;50.264;6.798;2022-07-04T03:54:29;10.00;99.90
21830;DHT22;11077;50.264;6.798;2022-07-04T03:56:56;9.90;99.90
21830;DHT22;11077;50.264;6.798;2022-07-04T03:59:23;9.90;99.90
21830;DHT22;11077;50.264;6.798;2022-07-04T04:01:51;9.90;99.90
21830;DHT22;11077;50.264;6.798;2022-07-04T04:04:18;9.90;99.90
21830;DHT22;11077;50.264;6.798;2022-07-04T04:07:03;9.90;99.90
21830;DHT22;11077;50.264;6.798;2022-07-04T04:09:32;9.80;99.90
21830;DHT22;11077;50.264;6.798;2022-07-04T04:11:59;9.80;99.90
21830;DHT22;11077;50.264;6.798;2022-07-04T04:14:26;9.80;99.90
21830;DHT22;11077;50.264;6.798;2022-07-04T04:16:53;9.80;99.90
21830;DHT22;11077;50.264;6.798;2022-07-04T04:19:20;9.80;99.90
21830;DHT22;11077;50.264;6.798;2022-07-04T04:21:48;9.80;99.90
21830;DHT22;11077;50.264;6.798;2022-07-04T04:24:15;9.70;99.90
21830;DHT22;11077;50.264;6.798;2022-07-04T04:26:44;9.60;99.90
21830;DHT22;11077;50.264;6.798;2022-07-04T04:29:11;9.60;99.90
21830;DHT22;11077;50.264;6.798;2022-07-04T04:31:39;9.70;99.90
21830;DHT22;11077;50.264;6.798;2022-07-04T04:34:06;9.60;99.90
21830;DHT22;11077;50.264;6.798;2022-07-04T04:36:33;9.70;99.90
21830;DHT22;11077;50.264;6.798;2022-07-04T04:39:01;9.70;99.90
21830;DHT22;11077;50.264;6.798;2022-07-04T04:41:29;9.70;99.90
21830;DHT22;11077;50.264;6.798;2022-07-04T04:43:58;9.70;99.90
21830;DHT22;11077;50.264;6.798;2022-07-04T04:46:25;9.70;99.90
21830;DHT22;11077;50.264;6.798;2022-07-04T04:48:53;9.70;99.90
21830;DHT22;11077;50.264;6.798;2022-07-04T04:51:20;9.70;99.90
21830;DHT22;11077;50.264;6.798;2022-07-04T04:53:47;9.70;99.90
21830;DHT22;11077;50.264;6.798;2022-07-04T04:56:15;9.70;99.90
21830;DHT22;11077;50.264;6.798;2022-07-04T04:58:50;9.70;99.90
21830;DHT22;11077;50.264;6.798;2022-07-04T05:01:18;9.70;99.90
21830;DHT22;11077;50.264;6.798;2022-07-04T05:03:46;9.80;99.90
21830;DHT22;11077;50.264;6.798;2022-07-04T05:06:13;9.80;99.90
21830;DHT22;11077;50.264;6.798;2022-07-04T05:08:40;9.90;99.90
21830;DHT22;11077;50.264;6.798;2022-07-04T05:11:08;9.90;99.90
21830;DHT22;11077;50.264;6.798;2022-07-04T05:13:35;10.00;99.90
21830;DHT22;11077;50.264;6.798;2022-07-04T05:16:03;10.10;99.90
21830;DHT22;11077;50.264;6.798;2022-07-04T05:18:32;10.20;99.90
21830;DHT22;11077;50.264;6.798;2022-07-04T05:20:59;10.30;99.90
21830;DHT22;11077;50.264;6.798;2022-07-04T05:23:26;10.40;99.90
21830;DHT22;11077;50.264;6.798;2022-07-04T05:25:53;10.40;99.90
21830;DHT22;11077;50.264;6.798;2022-07-04T05:28:21;10.50;99.90
21830;DHT22;11077;50.264;6.798;2022-07-04T05:30:48;10.60;99.90
21830;DHT22;11077;50.264;6.798;2022-07-04T05:33:15;10.70;99.90
21830;DHT22;11077;50.264;6.798;2022-07-04T05:35:44;10.80;99.90
21830;DHT22;11077;50.264;6.798;2022-07-04T05:38:11;10.90;99.90
21830;DHT22;11077;50.264;6.798;2022-07-04T05:40:38;11.00;99.90
21830;DHT22;11077;50.264;6.798;2022-07-04T05:43:06;11.10;99.90
21830;DHT22;11077;50.264;6.798;2022-07-04T05:45:33;11.20;99.90
21830;DHT22;11077;50.264;6.798;2022-07-04T05:48:00;11.40;99.90
21830;DHT22;11077;50.264;6.798;2022-07-04T05:50:28;11.50;99.90
21830;DHT22;11077;50.264;6.798;2022-07-04T05:52:56;11.60;99.90
21830;DHT22;11077;50.264;6.798;2022-07-04T05:55:24;11.60;99.90
21830;DHT22;11077;50.264;6.798;2022-07-04T05:57:51;11.80;99.90
21830;DHT22;11077;50.264;6.798;2022-07-04T06:00:19;11.90;99.90
21830;DHT22;11077;50.264;6.798;2022-07-04T06:02:46;11.90;99.90
21830;DHT22;11077;50.264;6.798;2022-07-04T06:05:13;12.00;99.90
21830;DHT22;11077;50.264;6.798;2022-07-04T06:07:41;12.10;99.90
21830;DHT22;11077;50.264;6.798;2022-07-04T06:10:10;12.20;99.90
21830;DHT22;11077;50.264;6.798;2022-07-04T06:12:37;12.40;99.90
21830;DHT22;11077;50.264;6.798;2022-07-04T06:15:06;12.50;99.90
21830;DHT22;11077;50.264;6.798;2022-07-04T06:17:35;12.60;99.90
21830;DHT22;11077;50.264;6.798;2022-07-04T06:20:04;12.80;99.90
21830;DHT22;11077;50.264;6.798;2022-07-04T06:22:38;12.90;99.90
21830;DHT22;11077;50.264;6.798;2022-07-04T06:25:09;13.00;99.90
21830;DHT22;11077;50.264;6.798;2022-07-04T06:27:36;13.10;99.90
21830;DHT22;11077;50.264;6.798;2022-07-04T06:30:04;13.20;99.90
21830;DHT22;11077;50.264;6.798;2022-07-04T06:32:44;13.30;99.90
21830;DHT22;11077;50.264;6.798;2022-07-04T06:35:12;13.40;99.90
21830;DHT22;11077;50.264;6.798;2022-07-04T06:37:57;13.50;99.90
21830;DHT22;11077;50.264;6.798;2022-07-04T06:40:26;13.50;99.90
21830;DHT22;11077;50.264;6.798;2022-07-04T06:42:54;13.60;99.90
21830;DHT22;11077;50.264;6.798;2022-07-04T06:45:21;13.70;99.90
21830;DHT22;11077;50.264;6.798;2022-07-04T06:47:48;13.80;99.90
21830;DHT22;11077;50.264;6.798;2022-07-04T06:50:16;13.90;99.90
21830;DHT22;11077;50.264;6.798;2022-07-04T06:52:44;13.90;99.90
21830;DHT22;11077;50.264;6.798;2022-07-04T06:55:12;14.00;99.90
21830;DHT22;11077;50.264;6.798;2022-07-04T06:57:41;14.10;99.90
21830;DHT22;11077;50.264;6.798;2022-07-04T07:00:08;14.20;99.90
21830;DHT22;11077;50.264;6.798;2022-07-04T07:02:37;14.30;99.90
21830;DHT22;11077;50.264;6.798;2022-07-04T07:05:05;14.40;99.90
21830;DHT22;11077;50.264;6.798;2022-07-04T07:07:32;14.40;99.90
21830;DHT22;11077;50.264;6.798;2022-07-04T07:10:00;14.50;99.90
21830;DHT22;11077;50.264;6.798;2022-07-04T07:12:29;14.50;99.90
21830;DHT22;11077;50.264;6.798;2022-07-04T07:15:00;14.60;99.90
21830;DHT22;11077;50.264;6.798;2022-07-04T07:17:28;14.70;99.90
21830;DHT22;11077;50.264;6.798;2022-07-04T07:19:56;14.80;99.90
21830;DHT22;11077;50.264;6.798;2022-07-04T07:22:24;14.90;99.90
21830;DHT22;11077;50.264;6.798;2022-07-04T07:24:51;15.00;99.90
21830;DHT22;11077;50.264;6.798;2022-07-04T07:27:19;15.10;99.90
21830;DHT22;11077;50.264;6.798;2022-07-04T07:29:48;15.20;99.90
21830;DHT22;11077;50.264;6.798;2022-07-04T07:32:17;15.30;99.90
21830;DHT22;11077;50.264;6.798;2022-07-04T07:34:44;15.40;99.90
21830;DHT22;11077;50.264;6.798;2022-07-04T07:37:11;15.50;99.90
21830;DHT22;11077;50.264;6.798;2022-07-04T07:39:39;15.60;99.90
21830;DHT22;11077;50.264;6.798;2022-07-04T07:42:06;15.70;99.90
21830;DHT22;11077;50.264;6.798;2022-07-04T07:44:34;15.80;99.90
21830;DHT22;11077;50.264;6.798;2022-07-04T07:47:02;16.00;99.90
21830;DHT22;11077;50.264;6.798;2022-07-04T07:49:32;16.10;99.90
21830;DHT22;11077;50.264;6.798;2022-07-04T07:51:59;16.20;99.90
21830;DHT22;11077;50.264;6.798;2022-07-04T07:54:26;16.40;99.90
21830;DHT22;11077;50.264;6.798;2022-07-04T07:56:54;16.60;99.90
21830;DHT22;11077;50.264;6.798;2022-07-04T07:59:21;16.80;99.90
21830;DHT22;11077;50.264;6.798;2022-07-04T08:01:48;17.00;99.90
21830;DHT22;11077;50.264;6.798;2022-07-04T08:04:16;17.20;99.90
21830;DHT22;11077;50.264;6.798;2022-07-04T08:07:02;17.40;99.90
21830;DHT22;11077;50.264;6.798;2022-07-04T08:09:30;17.50;99.90
21830;DHT22;11077;50.264;6.798;2022-07-04T08:11:59;17.70;99.90
21830;DHT22;11077;50.264;6.798;2022-07-04T08:14:27;17.90;99.90
21830;DHT22;11077;50.264;6.798;2022-07-04T08:16:55;18.00;99.90
21830;DHT22;11077;50.264;6.798;2022-07-04T08:19:23;18.10;99.90
21830;DHT22;11077;50.264;6.798;2022-07-04T08:21:51;18.30;99.90
21830;DHT22;11077;50.264;6.798;2022-07-04T08:24:21;18.50;99.90
21830;DHT22;11077;50.264;6.798;2022-07-04T08:26:49;18.60;99.90
21830;DHT22;11077;50.264;6.798;2022-07-04T08:29:18;18.80;99.90
21830;DHT22;11077;50.264;6.798;2022-07-04T08:31:46;19.10;99.90
21830;DHT22;11077;50.264;6.798;2022-07-04T08:34:13;19.30;99.90
21830;DHT22;11077;50.264;6.798;2022-07-04T08:36:40;19.30;99.90
21830;DHT22;11077;50.264;6.798;2022-07-04T08:39:08;19.20;99.90
21830;DHT22;11077;50.264;6.798;2022-07-04T08:41:40;19.20;99.90
21830;DHT22;11077;50.264;6.798;2022-07-04T08:44:09;19.40;99.90
21830;DHT22;11077;50.264;6.798;2022-07-04T08:46:38;19.50;99.90
21830;DHT22;11077;50.264;6.798;2022-07-04T08:49:14;19.60;99.90
21830;DHT22;11077;50.264;6.798;2022-07-04T08:51:52;19.80;99.90
21830;DHT22;11077;50.264;6.798;2022-07-04T08:54:22;19.90;99.90
21830;DHT22;11077;50.264;6.798;2022-07-04T08:57:08;19.80;99.90
21830;DHT22;11077;50.264;6.798;2022-07-04T08:59:50;20.00;99.90
21830;DHT22;11077;50.264;6.798;2022-07-04T09:02:22;20.20;99.90
21830;DHT22;11077;50.264;6.798;2022-07-04T09:04:50;20.30;99.90
21830;DHT22;11077;50.264;6.798;2022-07-04T09:07:17;20.40;99.90
21830;DHT22;11077;50.264;6.798;2022-07-04T09:09:45;20.50;99.90
21830;DHT22;11077;50.264;6.798;2022-07-04T09:12:14;20.20;99.70
21830;DHT22;11077;50.264;6.798;2022-07-04T09:14:41;20.30;99.90
21830;DHT22;11077;50.264;6.798;2022-07-04T09:17:09;20.40;99.90
21830;DHT22;11077;50.264;6.798;2022-07-04T09:19:36;20.60;99.20
21830;DHT22;11077;50.264;6.798;2022-07-04T09:22:04;20.90;98.70
21830;DHT22;11077;50.264;6.798;2022-07-04T09:24:47;20.90;99.90
21830;DHT22;11077;50.264;6.798;2022-07-04T09:27:31;21.10;99.20
21830;DHT22;11077;50.264;6.798;2022-07-04T09:30:00;21.40;98.40
21830;DHT22;11077;50.264;6.798;2022-07-04T09:32:38;21.60;97.50
21830;DHT22;11077;50.264;6.798;2022-07-04T09:35:08;21.80;97.60
21830;DHT22;11077;50.264;6.798;2022-07-04T09:37:38;21.80;97.40
21830;DHT22;11077;50.264;6.798;2022-07-04T09:40:09;21.60;97.70
21830;DHT22;11077;50.264;6.798;2022-07-04T09:42:41;21.30;97.50
21830;DHT22;11077;50.264;6.798;2022-07-04T09:45:10;21.50;98.00
21830;DHT22;11077;50.264;6.798;2022-07-04T09:47:39;21.80;97.30
21830;DHT22;11077;50.264;6.798;2022-07-04T09:50:12;22.00;95.80
21830;DHT22;11077;50.264;6.798;2022-07-04T09:52:50;22.10;95.00
21830;DHT22;11077;50.264;6.798;2022-07-04T09:55:27;22.20;94.90
21830;DHT22;11077;50.264;6.798;2022-07-04T09:57:57;22.40;95.60
21830;DHT22;11077;50.264;6.798;2022-07-04T10:00:26;22.70;94.80
21830;DHT22;11077;50.264;6.798;2022-07-04T10:02:54;22.70;96.10
21830;DHT22;11077;50.264;6.798;2022-07-04T10:05:25;22.50;94.60
21830;DHT22;11077;50.264;6.798;2022-07-04T10:07:55;22.60;95.60
21830;DHT22;11077;50.264;6.798;2022-07-04T10:10:28;22.90;95.90
21830;DHT22;11077;50.264;6.798;2022-07-04T10:12:58;22.90;93.60
21830;DHT22;11077;50.264;6.798;2022-07-04T10:15:27;23.10;94.70
21830;DHT22;11077;50.264;6.798;2022-07-04T10:17:56;23.40;94.20
21830;DHT22;11077;50.264;6.798;2022-07-04T10:20:24;23.70;94.70
21830;DHT22;11077;50.264;6.798;2022-07-04T10:22:52;23.70;93.20
21830;DHT22;11077;50.264;6.798;2022-07-04T10:25:20;23.80;93.40
21830;DHT22;11077;50.264;6.798;2022-07-04T10:27:54;23.80;93.50
21830;DHT22;11077;50.264;6.798;2022-07-04T10:30:28;24.10;92.40
21830;DHT22;11077;50.264;6.798;2022-07-04T10:32:59;24.30;93.00
21830;DHT22;11077;50.264;6.798;2022-07-04T10:35:47;24.70;93.70
21830;DHT22;11077;50.264;6.798;2022-07-04T10:38:15;25.10;92.80
21830;DHT22;11077;50.264;6.798;2022-07-04T10:40:48;25.30;92.70
21830;DHT22;11077;50.264;6.798;2022-07-04T10:46:32;25.20;91.50
21830;DHT22;11077;50.264;6.798;2022-07-04T10:49:02;25.30;91.20
21830;DHT22;11077;50.264;6.798;2022-07-04T10:51:35;25.50;90.40
21830;DHT22;11077;50.264;6.798;2022-07-04T10:54:06;25.20;91.10
21830;DHT22;11077;50.264;6.798;2022-07-04T10:56:42;24.90;92.40
21830;DHT22;11077;50.264;6.798;2022-07-04T10:59:14;25.00;90.50
21830;DHT22;11077;50.264;6.798;2022-07-04T11:01:50;25.20;91.20
21830;DHT22;11077;50.264;6.798;2022-07-04T11:04:46;25.40;90.00
21830;DHT22;11077;50.264;6.798;2022-07-04T11:07:14;25.50;88.60
21830;DHT22;11077;50.264;6.798;2022-07-04T11:09:42;25.70;88.70
21830;DHT22;11077;50.264;6.798;2022-07-04T11:12:10;25.80;89.60
21830;DHT22;11077;50.264;6.798;2022-07-04T11:14:41;25.90;88.90
21830;DHT22;11077;50.264;6.798;2022-07-04T11:17:11;26.10;87.50
21830;DHT22;11077;50.264;6.798;2022-07-04T11:19:40;26.30;84.70
21830;DHT22;11077;50.264;6.798;2022-07-04T11:22:09;26.50;85.00
21830;DHT22;11077;50.264;6.798;2022-07-04T11:24:37;26.80;86.70
21830;DHT22;11077;50.264;6.798;2022-07-04T11:27:07;27.10;84.30
21830;DHT22;11077;50.264;6.798;2022-07-04T11:29:35;27.20;85.20
21830;DHT22;11077;50.264;6.798;2022-07-04T11:32:04;27.20;86.30
21830;DHT22;11077;50.264;6.798;2022-07-04T11:34:34;27.10;83.90
21830;DHT22;11077;50.264;6.798;2022-07-04T11:37:02;26.90;86.10
21830;DHT22;11077;50.264;6.798;2022-07-04T11:39:30;26.30;84.10
21830;DHT22;11077;50.264;6.798;2022-07-04T11:41:58;26.30;87.50
21830;DHT22;11077;50.264;6.798;2022-07-04T11:44:43;26.20;89.30
21830;DHT22;11077;50.264;6.798;2022-07-04T11:47:32;26.20;89.20
21830;DHT22;11077;50.264;6.798;2022-07-04T11:50:05;26.00;89.50
21830;DHT22;11077;50.264;6.798;2022-07-04T11:52:40;26.20;88.90
21830;DHT22;11077;50.264;6.798;2022-07-04T11:55:09;26.30;87.70
21830;DHT22;11077;50.264;6.798;2022-07-04T11:57:39;26.30;84.60
21830;DHT22;11077;50.264;6.798;2022-07-04T12:00:08;26.50;85.00
21830;DHT22;11077;50.264;6.798;2022-07-04T12:02:36;26.80;82.50
21830;DHT22;11077;50.264;6.798;2022-07-04T12:05:07;26.90;85.10
21830;DHT22;11077;50.264;6.798;2022-07-04T12:07:37;27.20;83.10
21830;DHT22;11077;50.264;6.798;2022-07-04T12:10:10;27.50;84.30
21830;DHT22;11077;50.264;6.798;2022-07-04T12:12:52;27.70;82.40
21830;DHT22;11077;50.264;6.798;2022-07-04T12:15:20;27.60;81.20
21830;DHT22;11077;50.264;6.798;2022-07-04T12:17:50;27.20;83.50
21830;DHT22;11077;50.264;6.798;2022-07-04T12:20:22;26.40;84.30
21830;DHT22;11077;50.264;6.798;2022-07-04T12:22:52;26.00;87.80
21830;DHT22;11077;50.264;6.798;2022-07-04T12:25:22;26.10;86.80
21830;DHT22;11077;50.264;6.798;2022-07-04T12:27:54;26.40;83.30
21830;DHT22;11077;50.264;6.798;2022-07-04T12:30:22;26.80;84.00
21830;DHT22;11077;50.264;6.798;2022-07-04T12:32:51;26.60;82.10
21830;DHT22;11077;50.264;6.798;2022-07-04T12:35:44;26.70;85.60
21830;DHT22;11077;50.264;6.798;2022-07-04T12:38:15;26.70;83.00
21830;DHT22;11077;50.264;6.798;2022-07-04T12:40:55;26.70;82.50
21830;DHT22;11077;50.264;6.798;2022-07-04T12:43:24;26.70;82.40
21830;DHT22;11077;50.264;6.798;2022-07-04T12:45:53;26.60;82.80
21830;DHT22;11077;50.264;6.798;2022-07-04T12:48:24;26.50;83.30
21830;DHT22;11077;50.264;6.798;2022-07-04T12:50:53;26.10;83.00
21830;DHT22;11077;50.264;6.798;2022-07-04T12:53:21;26.00;83.60
21830;DHT22;11077;50.264;6.798;2022-07-04T12:55:49;25.80;84.80
21830;DHT22;11077;50.264;6.798;2022-07-04T12:58:19;25.40;84.50
21830;DHT22;11077;50.264;6.798;2022-07-04T13:00:47;25.10;84.40
21830;DHT22;11077;50.264;6.798;2022-07-04T13:03:14;25.00;86.00
21830;DHT22;11077;50.264;6.798;2022-07-04T13:05:42;25.00;85.20
21830;DHT22;11077;50.264;6.798;2022-07-04T13:08:11;25.00;86.60
21830;DHT22;11077;50.264;6.798;2022-07-04T13:10:38;25.00;86.90
21830;DHT22;11077;50.264;6.798;2022-07-04T13:13:05;24.90;86.00
21830;DHT22;11077;50.264;6.798;2022-07-04T13:15:33;24.80;86.80
21830;DHT22;11077;50.264;6.798;2022-07-04T13:18:00;24.50;85.90
21830;DHT22;11077;50.264;6.798;2022-07-04T13:20:28;24.40;87.50
21830;DHT22;11077;50.264;6.798;2022-07-04T13:22:55;24.30;89.10
21830;DHT22;11077;50.264;6.798;2022-07-04T13:25:24;24.10;86.70
21830;DHT22;11077;50.264;6.798;2022-07-04T13:27:51;24.00;85.60
21830;DHT22;11077;50.264;6.798;2022-07-04T13:30:19;23.80;86.50
21830;DHT22;11077;50.264;6.798;2022-07-04T13:32:48;23.70;87.20
21830;DHT22;11077;50.264;6.798;2022-07-04T13:35:16;23.70;88.50
21830;DHT22;11077;50.264;6.798;2022-07-04T13:37:43;23.70;87.30
21830;DHT22;11077;50.264;6.798;2022-07-04T13:40:12;23.80;90.00
21830;DHT22;11077;50.264;6.798;2022-07-04T13:42:41;23.90;88.50
21830;DHT22;11077;50.264;6.798;2022-07-04T13:45:24;23.70;90.40
21830;DHT22;11077;50.264;6.798;2022-07-04T13:47:53;23.70;89.60
21830;DHT22;11077;50.264;6.798;2022-07-04T13:50:20;23.80;89.50
21830;DHT22;11077;50.264;6.798;2022-07-04T13:52:48;23.90;90.60
21830;DHT22;11077;50.264;6.798;2022-07-04T13:55:16;24.00;90.10
21830;DHT22;11077;50.264;6.798;2022-07-04T13:57:45;23.90;87.10
21830;DHT22;11077;50.264;6.798;2022-07-04T14:00:12;23.70;88.50
21830;DHT22;11077;50.264;6.798;2022-07-04T14:02:41;23.70;88.50
21830;DHT22;11077;50.264;6.798;2022-07-04T14:05:09;23.70;89.00
21830;DHT22;11077;50.264;6.798;2022-07-04T14:07:36;23.50;88.30
21830;DHT22;11077;50.264;6.798;2022-07-04T14:10:04;23.30;86.60
21830;DHT22;11077;50.264;6.798;2022-07-04T14:12:32;23.00;86.80
21830;DHT22;11077;50.264;6.798;2022-07-04T14:15:01;23.00;90.90
21830;DHT22;11077;50.264;6.798;2022-07-04T14:17:28;23.10;87.80
21830;DHT22;11077;50.264;6.798;2022-07-04T14:19:56;23.30;91.00
21830;DHT22;11077;50.264;6.798;2022-07-04T14:22:23;23.40;86.90
21830;DHT22;11077;50.264;6.798;2022-07-04T14:24:51;23.60;87.40
21830;DHT22;11077;50.264;6.798;2022-07-04T14:27:18;23.60;85.10
21830;DHT22;11077;50.264;6.798;2022-07-04T14:29:46;23.60;87.60
21830;DHT22;11077;50.264;6.798;2022-07-04T14:32:14;23.80;87.30
21830;DHT22;11077;50.264;6.798;2022-07-04T14:34:42;23.80;90.30
21830;DHT22;11077;50.264;6.798;2022-07-04T14:37:09;23.90;88.70
21830;DHT22;11077;50.264;6.798;2022-07-04T14:39:37;23.90;90.30
21830;DHT22;11077;50.264;6.798;2022-07-04T14:42:05;24.00;87.20
21830;DHT22;11077;50.264;6.798;2022-07-04T14:44:32;23.90;85.40
21830;DHT22;11077;50.264;6.798;2022-07-04T14:47:02;23.90;90.10
21830;DHT22;11077;50.264;6.798;2022-07-04T14:49:31;24.00;86.60
21830;DHT22;11077;50.264;6.798;2022-07-04T14:52:00;24.00;90.10
21830;DHT22;11077;50.264;6.798;2022-07-04T14:54:27;24.10;90.70
21830;DHT22;11077;50.264;6.798;2022-07-04T14:56:54;24.10;87.00
21830;DHT22;11077;50.264;6.798;2022-07-04T14:59:22;24.20;85.80
21830;DHT22;11077;50.264;6.798;2022-07-04T15:01:50;24.20;88.00
21830;DHT22;11077;50.264;6.798;2022-07-04T15:04:18;24.30;88.20
21830;DHT22;11077;50.264;6.798;2022-07-04T15:06:47;24.30;87.50
21830;DHT22;11077;50.264;6.798;2022-07-04T15:09:14;24.50;85.50
21830;DHT22;11077;50.264;6.798;2022-07-04T15:11:44;24.30;84.60
21830;DHT22;11077;50.264;6.798;2022-07-04T15:14:13;24.10;88.20
21830;DHT22;11077;50.264;6.798;2022-07-04T15:16:40;24.10;86.70
21830;DHT22;11077;50.264;6.798;2022-07-04T15:19:08;24.00;85.70
21830;DHT22;11077;50.264;6.798;2022-07-04T15:21:36;24.20;85.80
21830;DHT22;11077;50.264;6.798;2022-07-04T15:24:22;24.50;86.10
21830;DHT22;11077;50.264;6.798;2022-07-04T15:26:50;24.70;83.10
21830;DHT22;11077;50.264;6.798;2022-07-04T15:29:23;24.90;82.60
21830;DHT22;11077;50.264;6.798;2022-07-04T15:31:51;25.10;83.10
21830;DHT22;11077;50.264;6.798;2022-07-04T15:34:19;25.20;86.60
21830;DHT22;11077;50.264;6.798;2022-07-04T15:36:46;25.30;84.70
21830;DHT22;11077;50.264;6.798;2022-07-04T15:39:15;25.40;84.60
21830;DHT22;11077;50.264;6.798;2022-07-04T15:41:45;25.50;81.90
21830;DHT22;11077;50.264;6.798;2022-07-04T15:44:13;25.80;83.70
21830;DHT22;11077;50.264;6.798;2022-07-04T15:46:41;25.80;82.40